Time;durP1;ratioP1;P1;durP2;ratioP2;P2;SDS_P1;SDS_P2;PMS_P1;PMS_P2;Temp;Humidity;BMP_temperature;BMP_pressure;BME280_temperature;BME280_humidity;BME280_pressure;Samples;Min_cycle;Max_cycle;Signal;HPM_P1;HPM_P2
2022/09/09 00:11:17;;;;;;;4.40;2.40;;;;;;;17.86;56.02;100099.17;656151;1280;139428;-80
2022/09/09 00:26:40;;;;;;;5.10;2.40;;;;;;;17.77;56.70;100096.91;655886;1280;138885;-81
2022/09/09 00:42:18;;;;;;;3.90;2.40;;;;;;;17.70;57.46;100091.58;656231;1280;138828;-81
2022/09/09 00:57:34;;;;;;;4.60;2.40;;;;;;;17.69;57.77;100089.95;656102;1280;139421;-81
2022/09/09 01:12:43;;;;;;;4.30;2.50;;;;;;;17.62;58.11;100097.80;655828;1280;140066;-81
2022/09/09 01:27:56;;;;;;;7.30;2.90;;;;;;;17.12;62.63;100117.59;654279;1280;138861;-90
2022/09/09 01:43:02;;;;;;;7.10;3.10;;;;;;;16.40;68.46;100129.95;663331;1280;140038;-96
2022/09/09 01:58:36;;;;;;;7.80;2.80;;;;;;;15.66;76.42;100141.94;668263;1279;139748;-95
2022/09/09 02:13:42;;;;;;;8.40;3.60;;;;;;;15.54;77.96;100139.38;666304;1273;138599;-86
2022/09/09 02:28:50;;;;;;;5.30;3.40;;;;;;;15.54;78.98;100137.42;655407;1281;138513;-85
2022/09/09 02:43:54;;;;;;;7.60;4.10;;;;;;;15.48;80.57;100137.91;657876;1281;140729;-85
2022/09/09 02:58:57;;;;;;;7.10;4.10;;;;;;;15.29;83.43;100134.80;658612;1277;138318;-80
2022/09/09 03:14:02;;;;;;;6.50;4.30;;;;;;;14.94;86.77;100144.77;657573;1280;138702;-80
2022/09/09 03:29:07;;;;;;;6.80;3.50;;;;;;;14.65;93.70;100134.32;656329;1277;138925;-83
2022/09/09 03:44:10;;;;;;;9.10;3.30;;;;;;;14.41;96.49;100135.19;658052;1277;1605694;-85
2022/09/09 03:59:14;;;;;;;5.90;3.10;;;;;;;14.33;98.75;100132.17;660029;1277;139051;-83
2022/09/09 04:14:19;;;;;;;4.60;2.90;;;;;;;14.19;99.51;100132.62;655124;1277;140551;-84
2022/09/09 04:29:22;;;;;;;3.90;2.70;;;;;;;14.13;100.00;100139.41;655877;1277;139115;-81
2022/09/09 04:44:26;;;;;;;5.50;2.60;;;;;;;13.93;100.00;100143.95;656649;1280;139951;-82
2022/09/09 04:59:30;;;;;;;6.30;3.10;;;;;;;13.85;100.00;100145.80;656846;1280;139473;-83
2022/09/09 05:14:37;;;;;;;5.00;2.90;;;;;;;13.82;100.00;100155.67;657204;1277;139706;-83
2022/09/09 05:29:43;;;;;;;4.80;2.90;;;;;;;13.71;100.00;100153.95;657903;1277;139831;-86
2022/09/09 05:44:46;;;;;;;4.40;2.90;;;;;;;13.64;100.00;100148.73;657424;1277;139790;-86
2022/09/09 05:59:50;;;;;;;3.80;3.10;;;;;;;13.65;100.00;100156.52;657878;1277;139337;-87
2022/09/09 06:14:54;;;;;;;5.20;3.80;;;;;;;13.74;100.00;100164.52;657505;1277;140257;-88
2022/09/09 06:29:57;;;;;;;20.90;11.50;;;;;;;13.82;100.00;100175.88;656798;1277;139409;-90
2022/09/09 06:45:01;;;;;;;6.20;4.00;;;;;;;13.89;100.00;100195.71;658802;1277;140264;-89
2022/09/09 07:00:13;;;;;;;20.00;12.60;;;;;;;13.84;100.00;100202.06;658056;1277;139702;-89
2022/09/09 07:15:18;;;;;;;4.80;3.90;;;;;;;13.92;100.00;100204.91;661283;1276;140985;-90
2022/09/09 07:30:22;;;;;;;4.60;3.00;;;;;;;14.12;100.00;100205.81;658736;1277;139846;-89
2022/09/09 07:45:31;;;;;;;8.40;6.10;;;;;;;14.44;100.00;100216.86;657618;1277;139957;-91
2022/09/09 08:00:34;;;;;;;8.30;4.40;;;;;;;14.52;100.00;100215.50;660202;1276;139992;-92
2022/09/09 08:15:38;;;;;;;5.00;3.10;;;;;;;14.64;100.00;100238.07;657455;1277;141062;-93
2022/09/09 08:30:42;;;;;;;5.80;3.20;;;;;;;14.41;100.00;100249.13;658262;1277;139378;-92
2022/09/09 08:46:09;;;;;;;5.30;3.10;;;;;;;14.19;100.00;100258.72;657909;1277;139311;-92
2022/09/09 09:01:23;;;;;;;5.10;3.10;;;;;;;14.26;100.00;100270.52;658044;1277;138964;-95
2022/09/09 09:16:43;;;;;;;5.40;3.60;;;;;;;14.36;100.00;100274.52;658342;1277;138409;-93
2022/09/09 09:31:58;;;;;;;3.90;3.10;;;;;;;14.48;100.00;100284.94;659253;1276;141484;-93
2022/09/09 09:47:21;;;;;;;12.80;9.20;;;;;;;14.59;100.00;100289.45;658690;1277;139020;-93
2022/09/09 10:02:40;;;;;;;17.40;7.80;;;;;;;14.64;100.00;100285.95;657184;1277;139733;-92
2022/09/09 10:18:22;;;;;;;12.90;8.90;;;;;;;14.81;100.00;100294.52;657183;1277;139031;-94
2022/09/09 10:33:51;;;;;;;34.40;12.70;;;;;;;14.77;100.00;100293.91;657493;1277;139494;-91
2022/09/09 10:49:04;;;;;;;10.10;6.50;;;;;;;14.73;100.00;100312.42;657081;1277;140307;-92
2022/09/09 11:04:19;;;;;;;33.60;12.50;;;;;;;14.76;100.00;100321.07;656610;1277;139317;-90
2022/09/09 11:19:48;;;;;;;9.60;5.60;;;;;;;14.89;100.00;100325.46;656431;1277;139630;-91
2022/09/09 11:35:05;;;;;;;10.60;7.60;;;;;;;15.04;100.00;100331.05;657431;1277;140563;-90
2022/09/09 11:50:15;;;;;;;11.90;8.10;;;;;;;14.93;100.00;100341.52;656793;1277;140020;-90
2022/09/09 12:05:20;;;;;;;13.30;8.10;;;;;;;14.97;100.00;100343.54;656544;1276;140066;-90
2022/09/09 12:20:30;;;;;;;20.60;12.40;;;;;;;15.00;100.00;100342.25;657864;1277;139562;-91
2022/09/09 12:35:38;;;;;;;41.20;19.80;;;;;;;15.01;100.00;100350.75;657341;1277;140323;-89
2022/09/09 12:50:48;;;;;;;33.70;16.50;;;;;;;15.17;100.00;100350.66;656514;1279;140741;-90
2022/09/09 13:06:00;;;;;;;21.50;13.30;;;;;;;15.29;100.00;100356.39;656440;1278;140189;-89
2022/09/09 13:21:04;;;;;;;22.50;13.70;;;;;;;15.34;100.00;100352.65;657065;1280;139956;-90
2022/09/09 13:36:14;;;;;;;34.70;19.20;;;;;;;15.44;100.00;100331.23;658419;1279;140908;-88
2022/09/09 13:51:26;;;;;;;;;;;;;;;15.49;100.00;100331.53;658403;1280;140301;-89
2022/09/09 14:06:30;;;;;;;25.20;14.50;;;;;;;15.51;100.00;100339.11;658336;1280;125512;-91
2022/09/09 14:21:33;;;;;;;30.90;19.40;;;;;;;15.55;100.00;100333.45;659841;1278;140211;-88
2022/09/09 14:36:38;;;;;;;28.10;17.30;;;;;;;15.50;100.00;100358.01;659326;1278;140402;-88
2022/09/09 14:51:42;;;;;;;28.60;16.50;;;;;;;15.49;100.00;100358.99;659024;1280;139579;-88
2022/09/09 15:06:48;;;;;;;29.30;16.70;;;;;;;15.47;100.00;100364.75;659044;1277;139949;-87
2022/09/09 15:21:52;;;;;;;36.90;21.00;;;;;;;15.31;100.00;100369.38;663909;1277;141399;-88
2022/09/09 15:36:56;;;;;;;29.60;18.70;;;;;;;15.22;100.00;100371.98;657726;1277;140263;-89
2022/09/09 15:54:54;;;;;;;31.70;18.80;;;;;;;15.30;100.00;100371.09;639455;1309;1699131;-90
2022/09/09 16:09:58;;;;;;;54.10;29.40;;;;;;;15.23;100.00;100372.00;651466;1287;139871;-89
2022/09/09 16:25:02;;;;;;;44.70;25.50;;;;;;;15.22;100.00;100367.15;657983;1276;139362;-90
2022/09/09 16:40:07;;;;;;;49.50;29.10;;;;;;;15.13;100.00;100379.18;657444;1277;139917;-89
2022/09/09 16:55:11;;;;;;;47.80;23.10;;;;;;;15.07;100.00;100376.67;658423;1276;139375;-88
2022/09/09 17:10:15;;;;;;;27.00;16.50;;;;;;;15.09;100.00;100392.34;657972;1277;140268;-89
2022/09/09 17:25:22;;;;;;;31.00;17.30;;;;;;;15.11;100.00;100402.11;657782;1276;139050;-88
2022/09/09 17:40:27;;;;;;;31.20;18.30;;;;;;;15.07;100.00;100412.43;657710;1277;138653;-88
2022/09/09 17:55:33;;;;;;;34.20;19.70;;;;;;;14.98;100.00;100424.27;659927;1277;139155;-88
2022/09/09 18:10:37;;;;;;;37.20;17.80;;;;;;;15.04;100.00;100429.80;660466;1276;140544;-87
2022/09/09 18:25:43;;;;;;;24.10;16.20;;;;;;;15.02;100.00;100424.11;660254;1277;138782;-89
2022/09/09 18:40:47;;;;;;;34.90;16.70;;;;;;;15.03;100.00;100428.92;659838;1277;138964;-89
2022/09/09 18:55:58;;;;;;;29.90;14.40;;;;;;;14.93;100.00;100449.30;661138;1277;139045;-86
2022/09/09 19:11:04;;;;;;;23.80;11.20;;;;;;;14.76;100.00;100452.60;661432;1277;141113;-87
2022/09/09 19:26:16;;;;;;;40.30;17.50;;;;;;;14.65;100.00;100456.02;661428;1277;139313;-88
2022/09/09 19:41:23;;;;;;;;;;;;;;;14.62;100.00;100443.62;660923;1277;139627;-83
2022/09/09 19:56:29;;;;;;;11.30;7.90;;;;;;;14.50;100.00;100430.24;659736;1277;125066;-88
2022/09/09 20:11:34;;;;;;;9.90;6.70;;;;;;;14.53;100.00;100435.55;659732;1278;139761;-86
2022/09/09 20:26:39;;;;;;;11.60;7.40;;;;;;;14.54;100.00;100439.73;658360;1277;139395;-87
2022/09/09 20:41:45;;;;;;;10.30;7.20;;;;;;;14.51;100.00;100449.55;658469;1277;140627;-88
2022/09/09 20:56:50;;;;;;;10.70;6.40;;;;;;;14.49;100.00;100437.20;658796;1277;139670;-88
2022/09/09 21:11:53;;;;;;;10.80;6.80;;;;;;;14.43;100.00;100440.08;660095;1277;140188;-88
2022/09/09 21:26:59;;;;;;;9.80;7.00;;;;;;;14.42;100.00;100460.32;658158;1277;139625;-87
2022/09/09 21:42:03;;;;;;;12.10;7.70;;;;;;;14.43;100.00;100458.97;657539;1276;138700;-87
2022/09/09 21:57:07;;;;;;;10.10;5.90;;;;;;;14.35;100.00;100448.02;656726;1277;139640;-88
2022/09/09 22:12:10;;;;;;;8.10;5.20;;;;;;;14.38;100.00;100451.89;657787;1277;139454;-87
2022/09/09 22:27:14;;;;;;;8.20;5.70;;;;;;;14.40;100.00;100454.11;656815;1277;139407;-88
2022/09/09 22:42:18;;;;;;;8.40;6.20;;;;;;;14.39;100.00;100426.66;655894;1277;140882;-87
2022/09/09 22:57:21;;;;;;;9.10;6.30;;;;;;;14.27;100.00;100426.42;657141;1277;139001;-87
2022/09/09 23:12:24;;;;;;;9.50;6.30;;;;;;;14.28;100.00;100423.01;657736;1277;140373;-89
2022/09/09 23:27:28;;;;;;;7.90;6.00;;;;;;;14.27;100.00;100420.77;656763;1277;139940;-87
2022/09/09 23:42:32;;;;;;;7.80;5.90;;;;;;;14.28;100.00;100419.45;657957;1276;140413;-87
2022/09/09 23:57:35;;;;;;;8.30;6.20;;;;;;;14.22;100.00;100411.91;657393;1277;138709;-88
